Nearby METAR Reports

 

KFRG - , , USA
Distance from station: SSW 12mi, 20km
Updated: 08/22/2017 11:53am
Partly Cloudy
Partly Cloudy
 Wind from SSW
Wind: SSW 12 mph , 19 km/h
Temperature: 81°F , 27°C
Heat Index: 86°F , 30°C
Dew Point: 73°F , 23°C
Humidity: 79%
Barometer: 29.98 inHg , 1015.2 hPa
Clouds: Partly Cloudy
Visibility: 8 miles , 13 km
Cloud details: Partly Cloudy 1200 ft
2017/08/22 15:53 KFRG 221553Z 21010KT 8SM SCT012 27/23 A2998 RMK AO2 SLP153 T02670233
KISP - , , USA
Distance from station: ESE 14mi, 23km
Updated: 08/22/2017 11:56am
Mostly Cloudy
Mostly Cloudy
 Wind from SSW
Wind: SSW 14 mph , 22 km/h
Temperature: 82°F , 28°C
Heat Index: 87°F , 31°C
Dew Point: 73°F , 23°C
Humidity: 74%
Barometer: 29.98 inHg , 1015.2 hPa
Clouds: Mostly Cloudy
Visibility: 9 miles , 14 km
Cloud details: Mostly Cloudy 1100 ft
Mostly Cloudy 25000 ft
2017/08/22 15:56 KISP 221556Z 21012KT 9SM BKN011 BKN250 28/23 A2998 RMK AO2 SLP151 T02830233
 
KBDR - , , USA
Distance from station: NNE 21mi, 34km
Updated: 08/22/2017 11:52am
Clear
Clear
 Wind from SSW
Wind: SSW 8 mph , 13 km/h
Temperature: 82°F , 28°C
Heat Index: 87°F , 31°C
Dew Point: 73°F , 23°C
Humidity: 74%
Barometer: 29.97 inHg , 1014.9 hPa
Clouds: Clear
Visibility: 9 miles , 14 km
2017/08/22 15:52 KBDR 221552Z 21007KT 9SM CLR 28/23 A2997 RMK AO2 SLP149 T02830228
KHPN - , , USA
Distance from station: WNW 22mi, 35km
Updated: 08/22/2017 11:56am
Partly Cloudy
Partly Cloudy
 Wind from S
Wind: S 9 mph , 15 km/h
Temperature: 84°F , 29°C
Heat Index: 90°F , 32°C
Dew Point: 73°F , 23°C
Humidity: 70%
Barometer: 29.97 inHg , 1014.9 hPa
Clouds: Partly Cloudy
Visibility: 8 miles , 13 km
Cloud details: Partly Cloudy 2200 ft
2017/08/22 15:56 KHPN 221556Z 17008KT 8SM SCT022 29/23 A2997 RMK AO2 SLP142 T02940228
 
KHWV - , , USA
Distance from station: ESE 26mi, 41km
Updated: 08/22/2017 12:17pm
Partly Cloudy
Partly Cloudy
 Wind from SW
Wind: SW 10 mph , 17 km/h
Temperature: 82°F , 28°C
Heat Index: 89°F , 32°C
Dew Point: 75°F , 24°C
Humidity: 79%
Barometer: 29.98 inHg , 1015.2 hPa
Clouds: Partly Cloudy
Visibility: 8 miles , 13 km
Cloud details: Partly Cloudy 1300 ft
2017/08/22 16:17 KHWV 221617Z AUTO 22009KT 8SM SCT013 28/24 A2998 RMK AO2 T02780244
KJFK - , , USA
Distance from station: SW 29mi, 46km
Updated: 08/22/2017 12:05pm
Partly Cloudy
Partly Cloudy
 Wind from SSW
Wind: SSW 9 mph , 15 km/h
Temperature: 82°F , 28°C
Heat Index: 89°F , 32°C
Dew Point: 75°F , 24°C
Humidity: 79%
Barometer: 29.98 inHg , 1015.2 hPa
Clouds: Partly Cloudy
Visibility: 9 miles , 14 km
Cloud details: Partly Cloudy 1400 ft
Partly Cloudy 25000 ft
2017/08/22 16:05 KJFK 221605Z 20008KT 9SM SCT014 SCT250 28/24 A2998 RMK AO2 T02830244
 
KLGA - , , USA
Distance from station: WSW 29mi, 47km
Updated: 08/22/2017 11:51am
Mostly Cloudy
Mostly Cloudy
 Wind from S
Wind: S 8 mph , 13 km/h
Temperature: 84°F , 29°C
Heat Index: 90°F , 32°C
Dew Point: 73°F , 23°C
Humidity: 70%
Barometer: 29.96 inHg , 1014.6 hPa
Clouds: Mostly Cloudy
Visibility: 10 miles , 16 km
Cloud details: Few Clouds 1500 ft
Mostly Cloudy 25000 ft
2017/08/22 15:51 KLGA 221551Z 19007KT 10SM FEW015 BKN250 29/23 A2996 RMK AO2 SLP145 T02940233